• Join FlightAware (Why Join?)
  • Login
  • US Flag 
10:43PM EST


 

Airport Tracker/Info


-or-


 

Live Flight TrackerFlight Track Log ✈ SKW5646 ✈ 02-May-2013 ✈ KSBA - KSFO

Flight Track Log - Related Links

Times and Time Zones

All times are in EDT time to prevent confusion due to time zone crossing. See the SKW5646 flight status page for this flight to view local times or setup timezone preferences in your user account.

Time Position Orientation Groundspeed Altitude Reporting Facility
EDT Latitude Longitude Course Direction KTS MPH feet Rate Location/Type
03:51PM 34.4192 -119.9747 263° West 199 229 3,900  Level Los Angeles Center
03:52PM 34.4197 -120.0439 271° West 201 231 5,700 1,680 Climbing Los Angeles Center
03:53PM 34.5743 -120.1410 321° Northwest  Level FlightAware Approximate
03:53PM 34.4261 -120.1103 277° West 204 235 7,400  Level Los Angeles Center
03:54PM 34.6364 -120.1939 328° Northwest  Level FlightAware Approximate
03:54PM 34.4603 -120.1450 320° Northwest 203 234 8,800  Level Los Angeles Center
03:55PM 34.6995 -120.2453 324° Northwest  Level FlightAware Approximate
03:55PM 34.5258 -120.1936 329° Northwest 199 229 11,100  Level Los Angeles Center
03:56PM 34.5753 -120.2308 328° Northwest 206 237 12,400 1,200 Climbing Los Angeles Center
03:57PM 34.6217 -120.2656 328° Northwest 213 245 13,700 1,320 Climbing Los Angeles Center
03:58PM 34.6806 -120.3125 327° Northwest 213 245 15,200 1,260 Climbing Los Angeles Center
03:59PM 34.7306 -120.3519 327° Northwest 215 247 16,400 1,140 Climbing Los Angeles Center
04:00PM 34.7817 -120.3908 328° Northwest 218 251 17,600 1,020 Climbing Los Angeles Center
04:01PM 34.8392 -120.4347 328° Northwest 219 252 18,500 900 Climbing Los Angeles Center
04:02PM 34.8847 -120.4700 328° Northwest 220 253 19,500 960 Climbing Los Angeles Center
04:03PM 34.9450 -120.5189 326° Northwest 219 252 20,600 900 Climbing Los Angeles Center
04:05PM 34.9986 -120.5608 327° Northwest 226 260 21,400 660 Climbing Los Angeles Center
04:06PM 35.0525 -120.6022 328° Northwest 230 265 22,000 240 Climbing Los Angeles Center
04:07PM 35.1125 -120.6489 328° Northwest 253 291 22,000  Level Los Angeles Center
04:08PM 35.1758 -120.6994 327° Northwest 271 312 22,000  Level Los Angeles Center
04:09PM 35.2372 -120.7506 326° Northwest 268 308 22,000  Level Los Angeles Center
04:10PM 35.3211 -120.8242 324° Northwest 263 303 22,000  Level Los Angeles Center
04:11PM 35.3783 -120.8800 322° Northwest 263 303 22,000  Level Los Angeles Center
04:11PM 35.3992 -120.9000 322° Northwest 262 302 22,000  Level Oakland Center
04:12PM 35.4681 -120.9661 322° Northwest 262 302 22,000  Level Oakland Center
04:13PM 35.5253 -121.0200 323° Northwest 260 299 22,000  Level Oakland Center
04:15PM 35.5831 -121.0750 322° Northwest 261 300 22,000  Level Oakland Center
04:16PM 35.6408 -121.1294 323° Northwest 262 302 22,000  Level Oakland Center
04:17PM 35.6983 -121.1839 322° Northwest 262 302 22,000  Level Oakland Center
04:18PM 35.7550 -121.2383 322° Northwest 261 300 22,000  Level Oakland Center
04:19PM 35.8125 -121.2925 323° Northwest 261 300 22,000  Level Oakland Center
04:20PM 35.8700 -121.3467 323° Northwest 261 300 22,000  Level Oakland Center
04:21PM 35.9272 -121.4008 323° Northwest 261 300 22,000  Level Oakland Center
04:22PM 35.9947 -121.4681 321° Northwest 260 299 22,000  Level Oakland Center
04:23PM 36.0531 -121.5228 323° Northwest 268 308 22,000  Level Oakland Center
04:24PM 36.1094 -121.5772 322° Northwest 259 298 22,000  Level Oakland Center
04:25PM 36.1658 -121.6333 321° Northwest 262 302 22,000  Level Oakland Center
04:26PM 36.2306 -121.6733 334° Northwest 259 298 22,000 -60 Level Oakland Center
04:27PM 36.3014 -121.7069 339° North 272 313 21,900 -540 Descending Oakland Center
04:28PM 36.3728 -121.7436 338° Northwest 286 329 20,900 -1,320 Descending Oakland Center
04:29PM 36.4333 -121.7833 332° Northwest 256 295 19,400 -1,620 Descending Northern Cal TRACON
04:30PM 36.5000 -121.8167 338° Northwest 252 290 17,800 -1,620 Descending Northern Cal TRACON
04:31PM 36.5667 -121.8500 338° Northwest 285 328 16,200 -1,620 Descending Northern Cal TRACON
04:32PM 36.6500 -121.8833 342° North 303 349 14,600 -1,680 Descending Northern Cal TRACON
04:33PM 36.7333 -121.9333 334° Northwest 308 354 12,900 -1,680 Descending Northern Cal TRACON
04:34PM 36.8167 -121.9667 342° North 311 358 11,300 -1,620 Descending Northern Cal TRACON
04:35PM 36.9000 -122.0167 334° Northwest 305 351 9,700 -1,500 Descending Northern Cal TRACON
04:36PM 36.9667 -122.0500 338° Northwest 285 328 8,400 -1,200 Descending Northern Cal TRACON
04:36PM 36.9786 -122.0611 323° Northwest 292 336 8,200 -360 Descending Oakland Center
04:37PM 37.0447 -122.1011 334° Northwest 271 312 8,000 -120 Descending Oakland Center
04:38PM 37.1125 -122.1225 346° North 253 291 8,000  Level Oakland Center
04:39PM 37.1792 -122.1378 350° North 246 283 8,000 -480 Level Oakland Center
04:41PM 37.2703 -122.2131 336° Northwest  Level FlightAware Approximate
04:44PM 37.5000 -122.1833 North 193 222 5,300  Level Northern Cal TRACON
04:44PM 37.5119 -122.1881 343° North 199 229 5,000 -960 Descending Oakland Center
04:48PM 37.6167 -122.3667 North  Level FlightAware Approximate
04:49PM 37.6191 -122.3752 North  Level Estimated